createdAt,value
2022-11-06T00:00:36.500Z,38.60
2022-11-06T00:04:18.459Z,43.42
2022-11-06T00:08:00.735Z,44.38
2022-11-06T00:11:43.242Z,41.03
2022-11-06T00:15:25.124Z,39.25
2022-11-06T00:19:08.122Z,37.60
2022-11-06T00:22:50.113Z,41.75
2022-11-06T00:26:33.512Z,40.40
2022-11-06T00:30:15.446Z,43.75
2022-11-06T00:33:58.818Z,42.53
2022-11-06T00:37:40.826Z,36.20
2022-11-06T00:41:23.712Z,48.88
2022-11-06T00:45:06.093Z,38.10
2022-11-06T00:48:48.355Z,41.03
2022-11-06T00:52:30.704Z,42.10
2022-11-06T00:56:18.035Z,43.00
2022-11-06T00:59:59.961Z,44.55
2022-11-06T01:03:46.554Z,40.17
2022-11-06T01:07:28.680Z,43.42
2022-11-06T01:11:25.035Z,38.75
2022-11-06T01:15:07.651Z,38.33
2022-11-06T01:18:50.523Z,34.67
2022-11-06T01:22:32.413Z,40.30
2022-11-06T01:26:18.653Z,35.88
2022-11-06T01:30:11.656Z,34.08
2022-11-06T01:33:58.485Z,75.43
2022-11-06T01:37:40.399Z,29.58
2022-11-06T01:41:26.221Z,33.30
2022-11-06T01:45:24.178Z,34.28
2022-11-06T01:49:16.646Z,60.38
2022-11-06T01:53:01.033Z,54.27
2022-11-06T01:56:44.840Z,48.40
2022-11-06T02:00:27.843Z,66.47
2022-11-06T02:04:26.073Z,63.25
2022-11-06T02:08:12.182Z,62.63
2022-11-06T02:12:27.790Z,41.58
2022-11-06T02:16:52.138Z,44.00
2022-11-06T02:21:02.636Z,39.00
2022-11-06T02:24:55.439Z,43.42
2022-11-06T02:28:39.917Z,43.55
2022-11-06T02:32:30.746Z,50.47
2022-11-06T02:36:18.460Z,47.10
2022-11-06T02:40:05.423Z,34.97
2022-11-06T02:43:52.241Z,32.53
2022-11-06T02:47:35.687Z,35.03
2022-11-06T02:51:22.258Z,34.30
2022-11-06T02:55:14.480Z,33.60
2022-11-06T02:59:02.498Z,26.37
2022-11-06T03:03:17.031Z,26.00
2022-11-06T03:07:28.829Z,23.77
2022-11-06T03:11:30.919Z,27.30
2022-11-06T03:15:34.846Z,26.75
2022-11-06T03:19:35.335Z,24.35
2022-11-06T03:23:28.809Z,23.77
2022-11-06T03:27:28.944Z,22.58
2022-11-06T03:31:16.166Z,23.15
2022-11-06T03:35:11.021Z,29.60
2022-11-06T03:39:10.143Z,23.57
2022-11-06T03:42:55.055Z,26.58
2022-11-06T03:46:40.192Z,24.70
2022-11-06T03:50:24.695Z,24.30
2022-11-06T03:54:22.250Z,20.40
2022-11-06T03:58:12.577Z,28.35
2022-11-06T04:01:57.135Z,20.30
2022-11-06T04:05:46.090Z,26.98
2022-11-06T04:09:50.921Z,17.40
2022-11-06T04:13:53.995Z,22.42
2022-11-06T04:17:36.422Z,21.30
2022-11-06T04:21:26.258Z,19.20
2022-11-06T04:25:46.914Z,17.60
2022-11-06T04:29:48.645Z,15.80
2022-11-06T04:33:50.372Z,17.90
2022-11-06T04:37:43.280Z,15.77
2022-11-06T04:41:43.561Z,19.80
2022-11-06T04:45:36.475Z,15.02
2022-11-06T04:49:20.432Z,17.35
2022-11-06T04:53:04.602Z,18.45
2022-11-06T04:56:46.868Z,15.63
2022-11-06T05:00:28.870Z,16.15
2022-11-06T05:04:12.379Z,17.17
2022-11-06T05:07:54.386Z,16.27
2022-11-06T05:11:36.300Z,16.50
2022-11-06T05:15:18.274Z,14.07
2022-11-06T05:19:00.144Z,15.52
2022-11-06T05:22:58.125Z,15.27
2022-11-06T05:26:40.026Z,19.95
2022-11-06T05:30:22.387Z,14.35
2022-11-06T05:34:05.598Z,10.43
2022-11-06T05:37:47.928Z,17.95
2022-11-06T05:41:29.830Z,12.43
2022-11-06T05:45:12.636Z,10.77
2022-11-06T05:48:54.634Z,9.75
2022-11-06T05:52:36.784Z,12.85
2022-11-06T05:56:18.780Z,7.97
2022-11-06T06:00:00.680Z,10.02
2022-11-06T06:03:42.735Z,10.50
2022-11-06T06:07:24.863Z,12.40
2022-11-06T06:11:07.884Z,9.83
2022-11-06T06:14:50.659Z,11.98
2022-11-06T06:18:32.708Z,11.55
2022-11-06T06:22:14.612Z,8.53
2022-11-06T06:25:57.747Z,12.50
2022-11-06T06:29:40.210Z,9.05
2022-11-06T06:33:22.062Z,10.38
2022-11-06T06:37:03.989Z,13.98
2022-11-06T06:40:45.998Z,11.55
2022-11-06T06:44:28.139Z,12.57
2022-11-06T06:48:10.337Z,13.43
2022-11-06T06:51:52.442Z,12.45
2022-11-06T06:55:34.320Z,18.50
2022-11-06T06:59:16.260Z,12.17
2022-11-06T07:02:58.200Z,14.13
2022-11-06T07:06:40.188Z,11.18
2022-11-06T07:10:22.153Z,15.48
2022-11-06T07:14:04.152Z,17.58
2022-11-06T07:17:46.084Z,11.23
2022-11-06T07:21:28.074Z,10.45
2022-11-06T07:25:10.252Z,10.87
2022-11-06T07:28:52.172Z,13.57
2022-11-06T07:32:34.056Z,15.77
2022-11-06T07:36:16.258Z,13.70
2022-11-06T07:39:58.261Z,12.98
2022-11-06T07:43:41.128Z,13.25
2022-11-06T07:47:23.371Z,8.57
2022-11-06T07:51:07.298Z,13.52
2022-11-06T07:54:49.306Z,10.85
2022-11-06T07:58:33.142Z,14.40
2022-11-06T08:02:15.377Z,11.40
2022-11-06T08:05:58.837Z,10.50
2022-11-06T08:09:40.755Z,14.10
2022-11-06T08:13:22.795Z,10.43
2022-11-06T08:17:07.670Z,10.05
2022-11-06T08:20:52.805Z,12.27
2022-11-06T08:24:35.059Z,9.63
2022-11-06T08:28:17.075Z,13.60
2022-11-06T08:31:59.097Z,15.60
2022-11-06T08:35:41.130Z,13.10
2022-11-06T08:39:23.099Z,10.13
2022-11-06T08:43:08.580Z,11.10
2022-11-06T08:46:52.081Z,11.80
2022-11-06T08:50:36.584Z,12.67
2022-11-06T08:54:18.583Z,11.05
2022-11-06T08:58:01.254Z,18.63
2022-11-06T09:01:43.667Z,16.52
2022-11-06T09:05:58.170Z,15.70
2022-11-06T09:09:40.248Z,26.38
2022-11-06T09:13:33.146Z,33.15
2022-11-06T09:17:15.290Z,37.20
2022-11-06T09:20:58.002Z,29.13
2022-11-06T09:25:12.579Z,32.08
2022-11-06T09:28:54.551Z,24.03
2022-11-06T09:32:50.774Z,14.27
2022-11-06T09:36:33.014Z,15.68
2022-11-06T09:48:31.246Z,16.05
2022-11-06T10:01:27.317Z,18.23
2022-11-06T10:05:34.922Z,18.10
2022-11-06T10:09:17.761Z,16.70
2022-11-06T10:13:30.594Z,16.00
2022-11-06T10:29:28.202Z,14.68
2022-11-06T10:33:56.466Z,14.55
2022-11-06T10:38:24.230Z,18.27
2022-11-06T10:42:38.182Z,15.70
2022-11-06T10:50:51.438Z,17.33
2022-11-06T10:55:13.695Z,12.65
2022-11-06T10:59:30.167Z,16.55
2022-11-06T11:07:47.402Z,18.48
2022-11-06T11:12:03.516Z,13.10
2022-11-06T11:28:05.107Z,9.95
2022-11-06T11:32:08.738Z,8.50
2022-11-06T11:35:51.646Z,10.15
2022-11-06T11:48:13.883Z,9.80
2022-11-06T11:52:42.847Z,9.60
2022-11-06T11:57:11.153Z,6.82
2022-11-06T12:01:21.902Z,7.10
2022-11-06T12:05:11.165Z,5.07
2022-11-06T12:12:51.387Z,5.70
2022-11-06T12:16:33.501Z,4.93
2022-11-06T12:20:32.514Z,4.97
2022-11-06T12:24:20.703Z,4.88
2022-11-06T12:28:25.194Z,6.32
2022-11-06T12:36:43.617Z,5.00
2022-11-06T12:40:54.490Z,6.80
2022-11-06T12:44:36.821Z,5.05
2022-11-06T12:52:36.110Z,5.47
2022-11-06T12:56:45.209Z,6.20
2022-11-06T13:05:33.095Z,5.18
2022-11-06T13:09:27.668Z,8.48
2022-11-06T13:13:34.138Z,7.57
2022-11-06T13:21:51.355Z,2.90
2022-11-06T13:25:51.097Z,4.65
2022-11-06T13:29:33.507Z,4.13
2022-11-06T13:37:31.348Z,3.25
2022-11-06T13:41:38.283Z,3.50
2022-11-06T13:45:21.824Z,5.20
2022-11-06T13:49:26.519Z,2.50
2022-11-06T13:54:00.065Z,4.13
2022-11-06T13:57:54.826Z,4.68
2022-11-06T14:02:15.561Z,6.70
2022-11-06T14:09:59.888Z,5.43
2022-11-06T14:14:16.952Z,8.93
2022-11-06T14:18:02.453Z,6.75
2022-11-06T14:22:09.553Z,8.35
2022-11-06T14:25:59.256Z,5.90
2022-11-06T14:30:05.414Z,10.15
2022-11-06T14:33:51.659Z,10.50
2022-11-06T14:38:11.513Z,10.60
2022-11-06T14:42:27.252Z,10.67
2022-11-06T15:05:12.016Z,6.45
2022-11-06T15:09:25.799Z,7.73
2022-11-06T15:17:31.946Z,7.47
2022-11-06T15:35:28.830Z,8.50
2022-11-06T15:55:54.623Z,6.38
2022-11-06T16:00:06.677Z,7.88
2022-11-06T16:25:15.176Z,5.07
2022-11-06T16:42:12.509Z,7.82
2022-11-06T16:46:09.422Z,12.60
2022-11-06T16:49:58.609Z,6.18
2022-11-06T16:54:00.927Z,9.10
2022-11-06T16:57:42.906Z,9.48
2022-11-06T17:01:26.847Z,10.75
2022-11-06T17:05:18.174Z,13.93
2022-11-06T17:09:22.945Z,10.35
2022-11-06T17:13:27.383Z,13.90
2022-11-06T17:17:27.501Z,7.63
2022-11-06T17:21:14.218Z,13.88
2022-11-06T17:24:56.143Z,8.60
2022-11-06T17:28:38.450Z,8.25
2022-11-06T17:32:20.396Z,13.57
2022-11-06T17:36:02.423Z,9.52
2022-11-06T17:39:44.314Z,7.25
2022-11-06T17:43:26.192Z,9.97
2022-11-06T17:47:08.098Z,12.15
2022-11-06T17:51:19.105Z,7.68
2022-11-06T17:55:01.005Z,8.65
2022-11-06T17:58:43.015Z,10.02
2022-11-06T18:02:41.099Z,12.07
2022-11-06T18:06:27.127Z,14.25
2022-11-06T18:10:09.569Z,15.37
2022-11-06T18:13:52.028Z,12.15
2022-11-06T18:17:34.014Z,16.13
2022-11-06T18:21:16.282Z,14.40
2022-11-06T18:24:58.189Z,16.88
2022-11-06T18:28:41.236Z,11.40
2022-11-06T18:32:23.186Z,13.65
2022-11-06T18:36:07.760Z,15.38
2022-11-06T18:39:49.716Z,19.55
2022-11-06T18:43:31.672Z,12.70
2022-11-06T18:47:13.607Z,14.20
2022-11-06T18:50:55.596Z,10.98
2022-11-06T18:54:37.550Z,14.82
2022-11-06T18:58:20.200Z,11.13
2022-11-06T19:02:02.208Z,14.13
2022-11-06T19:05:51.788Z,13.90
2022-11-06T19:09:33.644Z,11.45
2022-11-06T19:13:15.651Z,13.07
2022-11-06T19:16:57.619Z,13.27
2022-11-06T19:20:42.213Z,10.48
2022-11-06T19:24:24.325Z,9.87
2022-11-06T19:28:06.446Z,13.85
2022-11-06T19:31:48.462Z,15.80
2022-11-06T19:35:32.173Z,17.67
2022-11-06T19:39:14.333Z,13.25
2022-11-06T19:43:04.024Z,14.13
2022-11-06T19:46:45.922Z,16.27
2022-11-06T19:50:53.644Z,14.60
2022-11-06T19:59:16.200Z,15.35
2022-11-06T20:02:58.177Z,16.77
2022-11-06T20:06:40.318Z,18.30
2022-11-06T20:10:22.380Z,17.25
2022-11-06T20:14:37.106Z,17.67
2022-11-06T20:18:19.341Z,13.02
2022-11-06T20:22:02.617Z,18.00
2022-11-06T20:25:44.634Z,15.73
2022-11-06T20:29:27.677Z,12.48
2022-11-06T20:33:09.846Z,21.05
2022-11-06T20:37:00.787Z,24.23
2022-11-06T20:40:43.751Z,17.53
2022-11-06T20:44:25.837Z,16.67
2022-11-06T20:48:09.349Z,17.65
2022-11-06T20:52:14.691Z,17.13
2022-11-06T20:56:01.036Z,17.90
2022-11-06T20:59:43.445Z,15.70
2022-11-06T21:03:25.481Z,19.10
2022-11-06T21:07:07.554Z,20.95
2022-11-06T21:11:13.624Z,14.73
2022-11-06T21:14:58.486Z,14.00
2022-11-06T21:18:41.925Z,14.27
2022-11-06T21:22:25.245Z,24.45
2022-11-06T21:26:13.495Z,16.73
2022-11-06T21:29:58.558Z,15.83
2022-11-06T21:33:42.222Z,16.20
2022-11-06T21:37:33.352Z,19.02
2022-11-06T21:41:18.153Z,16.05
2022-11-06T21:45:00.514Z,18.33
2022-11-06T21:48:47.947Z,22.25
2022-11-06T21:52:50.293Z,18.00
2022-11-06T21:56:32.998Z,20.37
2022-11-06T22:00:33.583Z,17.95
2022-11-06T22:04:22.751Z,20.25
2022-11-06T22:08:05.117Z,19.47
2022-11-06T22:11:47.016Z,17.85
2022-11-06T22:15:29.710Z,21.58
2022-11-06T22:19:12.541Z,20.05
2022-11-06T22:22:54.521Z,17.13
2022-11-06T22:26:40.059Z,15.63
2022-11-06T22:30:22.167Z,18.83
2022-11-06T22:34:04.917Z,31.77
2022-11-06T22:37:47.298Z,19.20
2022-11-06T22:41:29.223Z,19.48
2022-11-06T22:45:11.294Z,19.60
2022-11-06T22:48:53.805Z,19.15
2022-11-06T22:52:35.667Z,20.45
2022-11-06T22:56:17.914Z,18.88
2022-11-06T22:59:59.816Z,17.27
2022-11-06T23:03:41.719Z,25.80
2022-11-06T23:07:23.788Z,18.50
2022-11-06T23:11:11.731Z,20.73
2022-11-06T23:14:53.695Z,12.75
2022-11-06T23:18:35.904Z,21.05
2022-11-06T23:22:35.792Z,16.63
2022-11-06T23:26:19.301Z,15.43
2022-11-06T23:30:01.324Z,22.10
2022-11-06T23:33:43.721Z,17.52
2022-11-06T23:37:26.429Z,18.65
2022-11-06T23:41:32.009Z,17.30
2022-11-06T23:45:32.792Z,15.07
2022-11-06T23:49:14.824Z,20.37
2022-11-06T23:53:02.109Z,18.98
2022-11-06T23:56:46.359Z,19.13
